sensor_id;sensor_type;location;lat;lon;timestamp;temperature;humidity
14850;DHT22;7517;48.400;11.770;2024-03-08T00:00:54;7.70;65.70
14850;DHT22;7517;48.400;11.770;2024-03-08T00:03:21;8.60;66.20
14850;DHT22;7517;48.400;11.770;2024-03-08T00:05:49;7.60;65.70
14850;DHT22;7517;48.400;11.770;2024-03-08T00:08:16;7.60;65.80
14850;DHT22;7517;48.400;11.770;2024-03-08T00:10:46;7.60;65.80
14850;DHT22;7517;48.400;11.770;2024-03-08T00:13:13;7.60;65.80
14850;DHT22;7517;48.400;11.770;2024-03-08T00:15:41;7.60;66.00
14850;DHT22;7517;48.400;11.770;2024-03-08T00:18:09;7.60;66.10
14850;DHT22;7517;48.400;11.770;2024-03-08T00:20:38;8.20;66.50
14850;DHT22;7517;48.400;11.770;2024-03-08T00:23:06;7.60;66.10
14850;DHT22;7517;48.400;11.770;2024-03-08T00:25:34;7.50;65.90
14850;DHT22;7517;48.400;11.770;2024-03-08T00:28:03;7.60;66.00
14850;DHT22;7517;48.400;11.770;2024-03-08T00:30:31;7.50;66.80
14850;DHT22;7517;48.400;11.770;2024-03-08T00:32:58;7.50;66.30
14850;DHT22;7517;48.400;11.770;2024-03-08T00:35:26;7.60;66.20
14850;DHT22;7517;48.400;11.770;2024-03-08T00:37:53;7.50;66.10
14850;DHT22;7517;48.400;11.770;2024-03-08T00:40:22;7.50;66.30
14850;DHT22;7517;48.400;11.770;2024-03-08T00:42:49;7.50;66.40
14850;DHT22;7517;48.400;11.770;2024-03-08T00:45:20;7.40;66.30
14850;DHT22;7517;48.400;11.770;2024-03-08T00:47:49;7.50;66.40
14850;DHT22;7517;48.400;11.770;2024-03-08T00:50:16;7.40;66.30
14850;DHT22;7517;48.400;11.770;2024-03-08T00:52:43;7.50;66.40
14850;DHT22;7517;48.400;11.770;2024-03-08T00:55:12;7.40;66.30
14850;DHT22;7517;48.400;11.770;2024-03-08T00:57:39;7.40;66.40
14850;DHT22;7517;48.400;11.770;2024-03-08T01:00:08;7.50;66.40
14850;DHT22;7517;48.400;11.770;2024-03-08T01:02:39;7.40;66.30
14850;DHT22;7517;48.400;11.770;2024-03-08T01:05:07;7.40;66.40
14850;DHT22;7517;48.400;11.770;2024-03-08T01:07:35;7.40;66.40
14850;DHT22;7517;48.400;11.770;2024-03-08T01:10:03;7.40;66.40
14850;DHT22;7517;48.400;11.770;2024-03-08T01:12:35;7.40;66.40
14850;DHT22;7517;48.400;11.770;2024-03-08T01:15:02;7.50;66.40
14850;DHT22;7517;48.400;11.770;2024-03-08T01:17:30;7.40;66.40
14850;DHT22;7517;48.400;11.770;2024-03-08T01:19:59;7.30;66.50
14850;DHT22;7517;48.400;11.770;2024-03-08T01:22:26;8.10;67.10
14850;DHT22;7517;48.400;11.770;2024-03-08T01:24:55;7.30;66.50
14850;DHT22;7517;48.400;11.770;2024-03-08T01:27:22;7.30;66.50
14850;DHT22;7517;48.400;11.770;2024-03-08T01:29:50;7.30;66.40
14850;DHT22;7517;48.400;11.770;2024-03-08T01:32:17;7.30;66.40
14850;DHT22;7517;48.400;11.770;2024-03-08T01:34:46;7.30;66.40
14850;DHT22;7517;48.400;11.770;2024-03-08T01:37:16;7.30;67.20
14850;DHT22;7517;48.400;11.770;2024-03-08T01:39:43;7.30;66.60
14850;DHT22;7517;48.400;11.770;2024-03-08T01:42:10;7.30;66.60
14850;DHT22;7517;48.400;11.770;2024-03-08T01:44:40;7.30;66.60
14850;DHT22;7517;48.400;11.770;2024-03-08T01:47:09;7.20;66.50
14850;DHT22;7517;48.400;11.770;2024-03-08T01:49:38;7.20;66.60
14850;DHT22;7517;48.400;11.770;2024-03-08T01:52:06;7.20;66.80
14850;DHT22;7517;48.400;11.770;2024-03-08T01:54:36;7.20;66.90
14850;DHT22;7517;48.400;11.770;2024-03-08T01:57:05;7.20;66.90
14850;DHT22;7517;48.400;11.770;2024-03-08T01:59:33;7.20;67.00
14850;DHT22;7517;48.400;11.770;2024-03-08T02:02:01;7.70;67.40
14850;DHT22;7517;48.400;11.770;2024-03-08T02:04:29;7.20;67.10
14850;DHT22;7517;48.400;11.770;2024-03-08T02:06:57;7.10;67.00
14850;DHT22;7517;48.400;11.770;2024-03-08T02:09:25;7.10;67.80
14850;DHT22;7517;48.400;11.770;2024-03-08T02:11:55;7.10;67.00
14850;DHT22;7517;48.400;11.770;2024-03-08T02:14:24;7.10;67.00
14850;DHT22;7517;48.400;11.770;2024-03-08T02:16:51;7.10;67.10
14850;DHT22;7517;48.400;11.770;2024-03-08T02:19:19;7.10;67.10
14850;DHT22;7517;48.400;11.770;2024-03-08T02:21:48;7.10;67.20
14850;DHT22;7517;48.400;11.770;2024-03-08T02:24:15;7.10;67.30
14850;DHT22;7517;48.400;11.770;2024-03-08T02:26:43;7.10;67.30
14850;DHT22;7517;48.400;11.770;2024-03-08T02:29:10;7.00;67.50
14850;DHT22;7517;48.400;11.770;2024-03-08T02:31:37;7.10;67.50
14850;DHT22;7517;48.400;11.770;2024-03-08T02:34:05;6.90;67.50
14850;DHT22;7517;48.400;11.770;2024-03-08T02:36:32;7.00;67.50
14850;DHT22;7517;48.400;11.770;2024-03-08T02:39:02;7.00;67.50
14850;DHT22;7517;48.400;11.770;2024-03-08T02:41:30;7.00;67.50
14850;DHT22;7517;48.400;11.770;2024-03-08T02:43:58;7.00;67.50
14850;DHT22;7517;48.400;11.770;2024-03-08T02:46:25;7.10;67.40
14850;DHT22;7517;48.400;11.770;2024-03-08T02:48:52;7.00;67.40
14850;DHT22;7517;48.400;11.770;2024-03-08T02:51:20;7.00;67.50
14850;DHT22;7517;48.400;11.770;2024-03-08T02:53:47;7.00;67.40
14850;DHT22;7517;48.400;11.770;2024-03-08T02:56:19;7.00;67.40
14850;DHT22;7517;48.400;11.770;2024-03-08T02:58:47;7.00;67.40
14850;DHT22;7517;48.400;11.770;2024-03-08T03:01:14;6.90;67.30
14850;DHT22;7517;48.400;11.770;2024-03-08T03:03:42;6.90;67.30
14850;DHT22;7517;48.400;11.770;2024-03-08T03:06:09;6.90;67.40
14850;DHT22;7517;48.400;11.770;2024-03-08T03:08:37;6.90;67.50
14850;DHT22;7517;48.400;11.770;2024-03-08T03:11:09;6.90;67.50
14850;DHT22;7517;48.400;11.770;2024-03-08T03:13:40;6.90;67.60
14850;DHT22;7517;48.400;11.770;2024-03-08T03:16:17;6.90;67.70
14850;DHT22;7517;48.400;11.770;2024-03-08T03:18:46;6.90;67.70
14850;DHT22;7517;48.400;11.770;2024-03-08T03:21:14;6.90;67.70
14850;DHT22;7517;48.400;11.770;2024-03-08T03:23:42;6.90;67.70
14850;DHT22;7517;48.400;11.770;2024-03-08T03:26:10;7.00;67.80
14850;DHT22;7517;48.400;11.770;2024-03-08T03:28:37;7.90;68.40
14850;DHT22;7517;48.400;11.770;2024-03-08T03:31:06;6.90;68.00
14850;DHT22;7517;48.400;11.770;2024-03-08T03:33:35;6.90;68.10
14850;DHT22;7517;48.400;11.770;2024-03-08T03:36:03;6.90;68.10
14850;DHT22;7517;48.400;11.770;2024-03-08T03:38:34;6.90;68.20
14850;DHT22;7517;48.400;11.770;2024-03-08T03:41:02;6.90;68.20
14850;DHT22;7517;48.400;11.770;2024-03-08T03:43:35;7.00;68.50
14850;DHT22;7517;48.400;11.770;2024-03-08T03:46:07;7.00;68.60
14850;DHT22;7517;48.400;11.770;2024-03-08T03:48:36;7.10;68.60
14850;DHT22;7517;48.400;11.770;2024-03-08T03:51:03;7.10;68.50
14850;DHT22;7517;48.400;11.770;2024-03-08T03:53:31;7.20;68.60
14850;DHT22;7517;48.400;11.770;2024-03-08T03:55:58;7.20;68.70
14850;DHT22;7517;48.400;11.770;2024-03-08T03:58:25;7.30;68.70
14850;DHT22;7517;48.400;11.770;2024-03-08T04:00:53;7.30;68.50
14850;DHT22;7517;48.400;11.770;2024-03-08T04:03:22;7.30;68.40
14850;DHT22;7517;48.400;11.770;2024-03-08T04:05:49;7.40;68.50
14850;DHT22;7517;48.400;11.770;2024-03-08T04:08:17;7.50;68.50
14850;DHT22;7517;48.400;11.770;2024-03-08T04:10:45;7.50;68.40
14850;DHT22;7517;48.400;11.770;2024-03-08T04:13:12;7.60;68.30
14850;DHT22;7517;48.400;11.770;2024-03-08T04:15:41;7.60;68.10
14850;DHT22;7517;48.400;11.770;2024-03-08T04:18:09;7.60;67.90
14850;DHT22;7517;48.400;11.770;2024-03-08T04:20:41;7.70;67.90
14850;DHT22;7517;48.400;11.770;2024-03-08T04:23:08;7.70;67.80
14850;DHT22;7517;48.400;11.770;2024-03-08T04:25:35;7.80;67.80
14850;DHT22;7517;48.400;11.770;2024-03-08T04:28:03;7.80;67.60
14850;DHT22;7517;48.400;11.770;2024-03-08T04:30:31;7.80;67.50
14850;DHT22;7517;48.400;11.770;2024-03-08T04:32:59;7.80;67.40
14850;DHT22;7517;48.400;11.770;2024-03-08T04:35:29;7.80;67.40
14850;DHT22;7517;48.400;11.770;2024-03-08T04:37:58;8.00;67.50
14850;DHT22;7517;48.400;11.770;2024-03-08T04:40:26;7.90;67.30
14850;DHT22;7517;48.400;11.770;2024-03-08T04:42:53;7.90;67.10
14850;DHT22;7517;48.400;11.770;2024-03-08T04:45:21;7.90;66.80
14850;DHT22;7517;48.400;11.770;2024-03-08T04:47:48;7.80;66.70
14850;DHT22;7517;48.400;11.770;2024-03-08T04:50:17;7.90;66.80
14850;DHT22;7517;48.400;11.770;2024-03-08T04:52:44;7.80;66.70
14850;DHT22;7517;48.400;11.770;2024-03-08T04:55:13;7.80;66.60
14850;DHT22;7517;48.400;11.770;2024-03-08T04:57:40;7.80;66.70
14850;DHT22;7517;48.400;11.770;2024-03-08T05:00:12;7.80;66.70
14850;DHT22;7517;48.400;11.770;2024-03-08T05:02:40;7.70;66.60
14850;DHT22;7517;48.400;11.770;2024-03-08T05:05:08;7.70;66.50
14850;DHT22;7517;48.400;11.770;2024-03-08T05:07:37;7.80;66.40
14850;DHT22;7517;48.400;11.770;2024-03-08T05:10:06;7.60;66.40
14850;DHT22;7517;48.400;11.770;2024-03-08T05:12:36;7.60;66.50
14850;DHT22;7517;48.400;11.770;2024-03-08T05:15:05;7.70;66.50
14850;DHT22;7517;48.400;11.770;2024-03-08T05:17:34;7.60;66.50
14850;DHT22;7517;48.400;11.770;2024-03-08T05:20:02;7.60;66.60
14850;DHT22;7517;48.400;11.770;2024-03-08T05:22:33;7.50;66.50
14850;DHT22;7517;48.400;11.770;2024-03-08T05:25:01;7.50;66.50
14850;DHT22;7517;48.400;11.770;2024-03-08T05:27:28;7.40;66.50
14850;DHT22;7517;48.400;11.770;2024-03-08T05:29:57;7.40;66.60
14850;DHT22;7517;48.400;11.770;2024-03-08T05:32:25;7.40;66.50
14850;DHT22;7517;48.400;11.770;2024-03-08T05:34:52;7.40;66.50
14850;DHT22;7517;48.400;11.770;2024-03-08T05:37:19;7.40;66.60
14850;DHT22;7517;48.400;11.770;2024-03-08T05:39:47;7.30;66.70
14850;DHT22;7517;48.400;11.770;2024-03-08T05:42:14;7.30;66.60
14850;DHT22;7517;48.400;11.770;2024-03-08T05:44:42;7.30;66.50
14850;DHT22;7517;48.400;11.770;2024-03-08T05:47:10;7.30;66.50
14850;DHT22;7517;48.400;11.770;2024-03-08T05:49:38;7.20;66.40
14850;DHT22;7517;48.400;11.770;2024-03-08T05:52:06;7.20;66.40
14850;DHT22;7517;48.400;11.770;2024-03-08T05:54:35;7.20;66.50
14850;DHT22;7517;48.400;11.770;2024-03-08T05:57:06;7.20;66.60
14850;DHT22;7517;48.400;11.770;2024-03-08T05:59:35;7.10;66.60
14850;DHT22;7517;48.400;11.770;2024-03-08T06:02:03;7.10;66.90
14850;DHT22;7517;48.400;11.770;2024-03-08T06:04:32;7.10;66.90
14850;DHT22;7517;48.400;11.770;2024-03-08T06:07:00;7.20;66.80
14850;DHT22;7517;48.400;11.770;2024-03-08T06:09:29;7.20;66.70
14850;DHT22;7517;48.400;11.770;2024-03-08T06:11:56;7.30;66.60
14850;DHT22;7517;48.400;11.770;2024-03-08T06:14:24;7.30;66.70
14850;DHT22;7517;48.400;11.770;2024-03-08T06:16:51;8.70;67.60
14850;DHT22;7517;48.400;11.770;2024-03-08T06:19:19;7.50;66.60
14850;DHT22;7517;48.400;11.770;2024-03-08T06:21:48;8.40;67.90
14850;DHT22;7517;48.400;11.770;2024-03-08T06:24:16;7.80;66.70
14850;DHT22;7517;48.400;11.770;2024-03-08T06:26:43;7.60;66.60
14850;DHT22;7517;48.400;11.770;2024-03-08T06:29:11;7.60;66.50
14850;DHT22;7517;48.400;11.770;2024-03-08T06:31:40;7.70;66.40
14850;DHT22;7517;48.400;11.770;2024-03-08T06:34:08;7.70;66.40
14850;DHT22;7517;48.400;11.770;2024-03-08T06:36:36;7.80;66.40
14850;DHT22;7517;48.400;11.770;2024-03-08T06:39:05;7.80;66.30
14850;DHT22;7517;48.400;11.770;2024-03-08T06:41:35;7.90;66.10
14850;DHT22;7517;48.400;11.770;2024-03-08T06:44:03;7.90;66.00
14850;DHT22;7517;48.400;11.770;2024-03-08T06:46:31;7.90;65.90
14850;DHT22;7517;48.400;11.770;2024-03-08T06:48:59;7.40;65.40
14850;DHT22;7517;48.400;11.770;2024-03-08T06:51:27;8.00;65.70
14850;DHT22;7517;48.400;11.770;2024-03-08T06:53:54;8.10;65.80
14850;DHT22;7517;48.400;11.770;2024-03-08T06:56:23;8.10;65.80
14850;DHT22;7517;48.400;11.770;2024-03-08T06:58:51;8.70;66.00
14850;DHT22;7517;48.400;11.770;2024-03-08T07:01:20;8.10;66.20
14850;DHT22;7517;48.400;11.770;2024-03-08T07:03:47;8.20;65.60
14850;DHT22;7517;48.400;11.770;2024-03-08T07:06:16;8.20;65.60
14850;DHT22;7517;48.400;11.770;2024-03-08T07:08:44;8.20;66.00
14850;DHT22;7517;48.400;11.770;2024-03-08T07:11:12;8.30;65.30
14850;DHT22;7517;48.400;11.770;2024-03-08T07:13:42;8.30;65.30
14850;DHT22;7517;48.400;11.770;2024-03-08T07:16:10;8.30;65.00
14850;DHT22;7517;48.400;11.770;2024-03-08T07:18:37;8.20;65.00
14850;DHT22;7517;48.400;11.770;2024-03-08T07:21:09;8.30;65.20
14850;DHT22;7517;48.400;11.770;2024-03-08T07:23:36;8.40;65.30
14850;DHT22;7517;48.400;11.770;2024-03-08T07:26:39;8.40;65.20
14850;DHT22;7517;48.400;11.770;2024-03-08T07:29:08;8.50;66.10
14850;DHT22;7517;48.400;11.770;2024-03-08T07:31:36;8.50;65.40
14850;DHT22;7517;48.400;11.770;2024-03-08T07:34:15;8.70;65.50
14850;DHT22;7517;48.400;11.770;2024-03-08T07:36:43;8.70;65.20
14850;DHT22;7517;48.400;11.770;2024-03-08T07:39:10;8.70;65.10
14850;DHT22;7517;48.400;11.770;2024-03-08T07:41:39;8.80;65.10
14850;DHT22;7517;48.400;11.770;2024-03-08T07:44:08;8.90;65.20
14850;DHT22;7517;48.400;11.770;2024-03-08T07:46:36;9.00;65.30
14850;DHT22;7517;48.400;11.770;2024-03-08T07:49:04;9.10;65.40
14850;DHT22;7517;48.400;11.770;2024-03-08T07:51:31;9.20;65.30
14850;DHT22;7517;48.400;11.770;2024-03-08T07:54:00;9.20;65.20
14850;DHT22;7517;48.400;11.770;2024-03-08T07:56:29;9.40;65.10
14850;DHT22;7517;48.400;11.770;2024-03-08T07:58:57;9.50;64.90
14850;DHT22;7517;48.400;11.770;2024-03-08T08:01:26;9.50;64.70
14850;DHT22;7517;48.400;11.770;2024-03-08T08:03:54;9.60;64.60
14850;DHT22;7517;48.400;11.770;2024-03-08T08:06:23;9.70;64.40
14850;DHT22;7517;48.400;11.770;2024-03-08T08:08:51;9.80;64.30
14850;DHT22;7517;48.400;11.770;2024-03-08T08:11:19;9.90;64.20
14850;DHT22;7517;48.400;11.770;2024-03-08T08:13:47;10.00;63.80
14850;DHT22;7517;48.400;11.770;2024-03-08T08:16:14;10.00;63.60
14850;DHT22;7517;48.400;11.770;2024-03-08T08:18:45;10.10;63.50
14850;DHT22;7517;48.400;11.770;2024-03-08T08:21:13;10.20;63.20
14850;DHT22;7517;48.400;11.770;2024-03-08T08:23:42;10.30;63.20
14850;DHT22;7517;48.400;11.770;2024-03-08T08:26:13;10.40;63.20
14850;DHT22;7517;48.400;11.770;2024-03-08T08:28:40;10.40;63.20
14850;DHT22;7517;48.400;11.770;2024-03-08T08:31:10;10.50;63.00
14850;DHT22;7517;48.400;11.770;2024-03-08T08:33:37;10.60;62.80
14850;DHT22;7517;48.400;11.770;2024-03-08T08:36:07;10.60;62.50
14850;DHT22;7517;48.400;11.770;2024-03-08T08:38:35;10.70;62.30
14850;DHT22;7517;48.400;11.770;2024-03-08T08:41:04;10.80;62.10
14850;DHT22;7517;48.400;11.770;2024-03-08T08:43:32;10.80;61.70
14850;DHT22;7517;48.400;11.770;2024-03-08T08:46:00;10.90;61.40
14850;DHT22;7517;48.400;11.770;2024-03-08T08:48:27;10.90;61.20
14850;DHT22;7517;48.400;11.770;2024-03-08T08:50:56;10.90;61.40
14850;DHT22;7517;48.400;11.770;2024-03-08T08:53:25;11.00;61.60
14850;DHT22;7517;48.400;11.770;2024-03-08T08:55:53;11.00;61.60
14850;DHT22;7517;48.400;11.770;2024-03-08T08:58:22;11.10;61.70
14850;DHT22;7517;48.400;11.770;2024-03-08T09:00:49;11.20;61.60
14850;DHT22;7517;48.400;11.770;2024-03-08T09:03:18;11.20;61.40
14850;DHT22;7517;48.400;11.770;2024-03-08T09:05:46;11.30;61.20
14850;DHT22;7517;48.400;11.770;2024-03-08T09:08:13;11.40;60.80
14850;DHT22;7517;48.400;11.770;2024-03-08T09:10:43;11.50;60.40
14850;DHT22;7517;48.400;11.770;2024-03-08T09:13:12;11.60;60.50
14850;DHT22;7517;48.400;11.770;2024-03-08T09:15:39;11.70;60.80
14850;DHT22;7517;48.400;11.770;2024-03-08T09:18:07;11.80;60.70
14850;DHT22;7517;48.400;11.770;2024-03-08T09:20:35;12.00;60.80
14850;DHT22;7517;48.400;11.770;2024-03-08T09:23:04;12.10;60.90
14850;DHT22;7517;48.400;11.770;2024-03-08T09:25:31;12.30;60.70
14850;DHT22;7517;48.400;11.770;2024-03-08T09:28:01;12.40;60.30
14850;DHT22;7517;48.400;11.770;2024-03-08T09:30:28;12.50;60.10
14850;DHT22;7517;48.400;11.770;2024-03-08T09:32:56;12.70;60.80
14850;DHT22;7517;48.400;11.770;2024-03-08T09:35:24;12.80;60.30
14850;DHT22;7517;48.400;11.770;2024-03-08T09:37:51;13.00;61.40
14850;DHT22;7517;48.400;11.770;2024-03-08T09:40:20;13.10;60.10
14850;DHT22;7517;48.400;11.770;2024-03-08T09:42:50;13.30;60.20
14850;DHT22;7517;48.400;11.770;2024-03-08T09:45:20;13.50;60.10
14850;DHT22;7517;48.400;11.770;2024-03-08T09:47:49;13.80;59.70
14850;DHT22;7517;48.400;11.770;2024-03-08T09:50:17;14.00;59.50
14850;DHT22;7517;48.400;11.770;2024-03-08T09:52:47;14.20;59.10
14850;DHT22;7517;48.400;11.770;2024-03-08T09:55:16;14.50;59.00
14850;DHT22;7517;48.400;11.770;2024-03-08T09:57:48;14.70;58.90
14850;DHT22;7517;48.400;11.770;2024-03-08T10:00:34;14.90;58.40
14850;DHT22;7517;48.400;11.770;2024-03-08T10:03:06;15.20;58.20
14850;DHT22;7517;48.400;11.770;2024-03-08T10:05:34;15.40;57.50
14850;DHT22;7517;48.400;11.770;2024-03-08T10:08:02;15.60;58.00
14850;DHT22;7517;48.400;11.770;2024-03-08T10:10:30;15.80;57.00
14850;DHT22;7517;48.400;11.770;2024-03-08T10:12:58;16.00;56.50
14850;DHT22;7517;48.400;11.770;2024-03-08T10:15:28;16.20;55.80
14850;DHT22;7517;48.400;11.770;2024-03-08T10:18:00;16.30;55.30
14850;DHT22;7517;48.400;11.770;2024-03-08T10:20:30;16.40;55.00
14850;DHT22;7517;48.400;11.770;2024-03-08T10:22:59;16.50;54.40
14850;DHT22;7517;48.400;11.770;2024-03-08T10:25:29;16.60;54.20
14850;DHT22;7517;48.400;11.770;2024-03-08T10:27:57;16.70;54.40
14850;DHT22;7517;48.400;11.770;2024-03-08T10:30:25;16.80;54.10
14850;DHT22;7517;48.400;11.770;2024-03-08T10:32:53;16.80;54.70
14850;DHT22;7517;48.400;11.770;2024-03-08T10:35:22;16.90;53.90
14850;DHT22;7517;48.400;11.770;2024-03-08T10:37:51;16.90;53.20
14850;DHT22;7517;48.400;11.770;2024-03-08T10:40:26;17.00;53.40
14850;DHT22;7517;48.400;11.770;2024-03-08T10:42:56;17.10;53.60
14850;DHT22;7517;48.400;11.770;2024-03-08T10:45:31;17.10;53.10
14850;DHT22;7517;48.400;11.770;2024-03-08T10:48:18;17.10;52.60
14850;DHT22;7517;48.400;11.770;2024-03-08T10:50:59;17.10;51.90
14850;DHT22;7517;48.400;11.770;2024-03-08T10:53:30;17.20;52.40
14850;DHT22;7517;48.400;11.770;2024-03-08T10:55:58;17.20;52.20
14850;DHT22;7517;48.400;11.770;2024-03-08T10:58:26;17.20;52.10
14850;DHT22;7517;48.400;11.770;2024-03-08T11:00:58;17.10;52.00
14850;DHT22;7517;48.400;11.770;2024-03-08T11:03:53;17.10;51.60
14850;DHT22;7517;48.400;11.770;2024-03-08T11:06:30;17.00;51.00
14850;DHT22;7517;48.400;11.770;2024-03-08T11:09:27;16.90;51.20
14850;DHT22;7517;48.400;11.770;2024-03-08T11:12:24;16.70;50.80
14850;DHT22;7517;48.400;11.770;2024-03-08T11:14:55;16.60;51.10
14850;DHT22;7517;48.400;11.770;2024-03-08T11:17:41;16.50;51.40
14850;DHT22;7517;48.400;11.770;2024-03-08T11:20:13;16.30;50.80
14850;DHT22;7517;48.400;11.770;2024-03-08T11:23:03;16.20;51.00
14850;DHT22;7517;48.400;11.770;2024-03-08T11:25:36;16.10;50.70
14850;DHT22;7517;48.400;11.770;2024-03-08T11:28:09;16.00;51.00
14850;DHT22;7517;48.400;11.770;2024-03-08T11:30:46;15.80;51.00
14850;DHT22;7517;48.400;11.770;2024-03-08T11:33:41;15.70;51.20
14850;DHT22;7517;48.400;11.770;2024-03-08T11:36:11;15.60;51.50
14850;DHT22;7517;48.400;11.770;2024-03-08T11:38:43;15.50;51.50
14850;DHT22;7517;48.400;11.770;2024-03-08T11:41:14;15.40;51.70
14850;DHT22;7517;48.400;11.770;2024-03-08T11:43:43;15.30;51.90
14850;DHT22;7517;48.400;11.770;2024-03-08T11:46:12;15.20;52.00
14850;DHT22;7517;48.400;11.770;2024-03-08T11:48:41;15.10;52.20
14850;DHT22;7517;48.400;11.770;2024-03-08T11:51:09;15.10;52.20
14850;DHT22;7517;48.400;11.770;2024-03-08T11:53:39;15.00;52.40
14850;DHT22;7517;48.400;11.770;2024-03-08T11:56:10;15.00;52.40
14850;DHT22;7517;48.400;11.770;2024-03-08T11:58:39;14.90;51.90
14850;DHT22;7517;48.400;11.770;2024-03-08T12:01:09;14.90;51.70
14850;DHT22;7517;48.400;11.770;2024-03-08T12:03:38;14.80;51.60
14850;DHT22;7517;48.400;11.770;2024-03-08T12:06:08;14.80;52.10
14850;DHT22;7517;48.400;11.770;2024-03-08T12:08:36;14.70;52.30
14850;DHT22;7517;48.400;11.770;2024-03-08T12:11:04;14.70;52.30
14850;DHT22;7517;48.400;11.770;2024-03-08T12:13:34;14.60;52.30
14850;DHT22;7517;48.400;11.770;2024-03-08T12:16:02;14.60;52.30
14850;DHT22;7517;48.400;11.770;2024-03-08T12:18:34;14.60;52.50
14850;DHT22;7517;48.400;11.770;2024-03-08T12:21:07;14.60;52.70
14850;DHT22;7517;48.400;11.770;2024-03-08T12:23:36;14.60;52.80
14850;DHT22;7517;48.400;11.770;2024-03-08T12:26:11;14.60;52.70
14850;DHT22;7517;48.400;11.770;2024-03-08T12:28:42;14.50;52.40
14850;DHT22;7517;48.400;11.770;2024-03-08T12:31:12;14.60;52.60
14850;DHT22;7517;48.400;11.770;2024-03-08T12:33:49;14.50;52.60
14850;DHT22;7517;48.400;11.770;2024-03-08T12:36:17;14.50;52.50
14850;DHT22;7517;48.400;11.770;2024-03-08T12:38:45;14.50;52.70
14850;DHT22;7517;48.400;11.770;2024-03-08T12:41:13;14.50;52.70
14850;DHT22;7517;48.400;11.770;2024-03-08T12:43:44;14.50;52.40
14850;DHT22;7517;48.400;11.770;2024-03-08T12:46:14;14.50;52.20
14850;DHT22;7517;48.400;11.770;2024-03-08T12:48:42;14.50;52.50
14850;DHT22;7517;48.400;11.770;2024-03-08T12:51:12;14.60;52.40
14850;DHT22;7517;48.400;11.770;2024-03-08T12:53:41;14.60;52.30
14850;DHT22;7517;48.400;11.770;2024-03-08T12:56:09;14.60;52.30
14850;DHT22;7517;48.400;11.770;2024-03-08T12:58:37;14.60;52.10
14850;DHT22;7517;48.400;11.770;2024-03-08T13:01:07;14.60;51.70
14850;DHT22;7517;48.400;11.770;2024-03-08T13:03:35;14.60;51.80
14850;DHT22;7517;48.400;11.770;2024-03-08T13:06:04;14.60;52.00
14850;DHT22;7517;48.400;11.770;2024-03-08T13:08:34;14.60;51.90
14850;DHT22;7517;48.400;11.770;2024-03-08T13:11:05;14.60;51.90
14850;DHT22;7517;48.400;11.770;2024-03-08T13:13:37;14.60;51.90
14850;DHT22;7517;48.400;11.770;2024-03-08T13:16:07;14.60;51.80
14850;DHT22;7517;48.400;11.770;2024-03-08T13:18:35;14.60;51.80
14850;DHT22;7517;48.400;11.770;2024-03-08T13:21:02;14.60;52.60
14850;DHT22;7517;48.400;11.770;2024-03-08T13:23:32;14.60;52.10
14850;DHT22;7517;48.400;11.770;2024-03-08T13:26:04;14.60;52.00
14850;DHT22;7517;48.400;11.770;2024-03-08T13:28:33;14.60;52.00
14850;DHT22;7517;48.400;11.770;2024-03-08T13:31:04;14.60;51.70
14850;DHT22;7517;48.400;11.770;2024-03-08T13:33:34;14.60;51.80
14850;DHT22;7517;48.400;11.770;2024-03-08T13:36:02;14.60;51.70
14850;DHT22;7517;48.400;11.770;2024-03-08T13:38:32;14.70;52.00
14850;DHT22;7517;48.400;11.770;2024-03-08T13:41:01;14.60;52.00
14850;DHT22;7517;48.400;11.770;2024-03-08T13:43:29;14.70;51.90
14850;DHT22;7517;48.400;11.770;2024-03-08T13:45:59;14.70;51.80
14850;DHT22;7517;48.400;11.770;2024-03-08T13:48:26;14.70;52.30
14850;DHT22;7517;48.400;11.770;2024-03-08T13:50:54;14.70;51.50
14850;DHT22;7517;48.400;11.770;2024-03-08T13:53:22;14.70;51.40
14850;DHT22;7517;48.400;11.770;2024-03-08T13:55:50;14.70;51.60
14850;DHT22;7517;48.400;11.770;2024-03-08T13:58:18;14.70;51.70
14850;DHT22;7517;48.400;11.770;2024-03-08T14:00:45;14.70;51.80
14850;DHT22;7517;48.400;11.770;2024-03-08T14:03:14;14.70;51.60
14850;DHT22;7517;48.400;11.770;2024-03-08T14:05:43;14.70;51.20
14850;DHT22;7517;48.400;11.770;2024-03-08T14:08:13;14.70;51.00
14850;DHT22;7517;48.400;11.770;2024-03-08T14:10:43;14.80;51.30
14850;DHT22;7517;48.400;11.770;2024-03-08T14:13:12;14.80;51.30
14850;DHT22;7517;48.400;11.770;2024-03-08T14:15:41;14.70;50.90
14850;DHT22;7517;48.400;11.770;2024-03-08T14:18:11;14.80;51.00
14850;DHT22;7517;48.400;11.770;2024-03-08T14:20:39;14.80;51.00
14850;DHT22;7517;48.400;11.770;2024-03-08T14:23:07;14.80;50.90
14850;DHT22;7517;48.400;11.770;2024-03-08T14:25:36;14.80;51.10
14850;DHT22;7517;48.400;11.770;2024-03-08T14:28:04;14.70;51.10
14850;DHT22;7517;48.400;11.770;2024-03-08T14:30:33;14.80;50.90
14850;DHT22;7517;48.400;11.770;2024-03-08T14:33:04;14.80;50.90
14850;DHT22;7517;48.400;11.770;2024-03-08T14:35:34;14.80;51.00
14850;DHT22;7517;48.400;11.770;2024-03-08T14:38:02;14.80;50.60
14850;DHT22;7517;48.400;11.770;2024-03-08T14:40:30;14.80;50.40
14850;DHT22;7517;48.400;11.770;2024-03-08T14:42:59;14.80;50.30
14850;DHT22;7517;48.400;11.770;2024-03-08T14:45:26;14.80;50.50
14850;DHT22;7517;48.400;11.770;2024-03-08T14:47:54;14.80;50.60
14850;DHT22;7517;48.400;11.770;2024-03-08T14:50:22;14.80;50.50
14850;DHT22;7517;48.400;11.770;2024-03-08T14:52:51;14.80;50.50
14850;DHT22;7517;48.400;11.770;2024-03-08T14:55:20;14.80;50.60
14850;DHT22;7517;48.400;11.770;2024-03-08T14:57:48;14.80;50.50
14850;DHT22;7517;48.400;11.770;2024-03-08T15:00:19;14.80;50.70
14850;DHT22;7517;48.400;11.770;2024-03-08T15:02:59;14.70;50.30
14850;DHT22;7517;48.400;11.770;2024-03-08T15:05:33;14.80;50.80
14850;DHT22;7517;48.400;11.770;2024-03-08T15:08:04;14.80;50.30
14850;DHT22;7517;48.400;11.770;2024-03-08T15:10:35;14.70;50.40
14850;DHT22;7517;48.400;11.770;2024-03-08T15:13:02;14.80;50.70
14850;DHT22;7517;48.400;11.770;2024-03-08T15:15:44;14.80;51.00
14850;DHT22;7517;48.400;11.770;2024-03-08T15:18:12;14.80;51.00
14850;DHT22;7517;48.400;11.770;2024-03-08T15:20:40;14.80;50.90
14850;DHT22;7517;48.400;11.770;2024-03-08T15:23:07;14.80;51.00
14850;DHT22;7517;48.400;11.770;2024-03-08T15:25:35;14.80;51.00
14850;DHT22;7517;48.400;11.770;2024-03-08T15:28:05;14.80;50.80
14850;DHT22;7517;48.400;11.770;2024-03-08T15:30:38;14.70;50.80
14850;DHT22;7517;48.400;11.770;2024-03-08T15:33:09;14.80;50.90
14850;DHT22;7517;48.400;11.770;2024-03-08T15:35:38;14.70;50.90
14850;DHT22;7517;48.400;11.770;2024-03-08T15:38:05;14.70;50.90
14850;DHT22;7517;48.400;11.770;2024-03-08T15:40:33;14.70;50.90
14850;DHT22;7517;48.400;11.770;2024-03-08T15:43:01;14.70;50.90
14850;DHT22;7517;48.400;11.770;2024-03-08T15:45:29;14.70;51.10
14850;DHT22;7517;48.400;11.770;2024-03-08T15:47:56;14.70;51.10
14850;DHT22;7517;48.400;11.770;2024-03-08T15:50:25;14.70;51.00
14850;DHT22;7517;48.400;11.770;2024-03-08T15:52:53;14.70;50.90